createdAt,value
2019-03-10T00:00:28.276Z,95.70
2019-03-10T00:02:57.400Z,95.50
2019-03-10T00:05:26.064Z,95.40
2019-03-10T00:07:54.658Z,95.30
2019-03-10T00:10:23.482Z,95.30
2019-03-10T00:12:52.386Z,95.20
2019-03-10T00:15:21.912Z,95.10
2019-03-10T00:17:50.696Z,95.10
2019-03-10T00:20:19.412Z,95.10
2019-03-10T00:22:48.016Z,95.10
2019-03-10T00:25:16.736Z,95.10
2019-03-10T00:27:45.376Z,95.00
2019-03-10T00:30:17.322Z,95.10
2019-03-10T00:32:46.296Z,95.10
2019-03-10T00:35:15.020Z,95.10
2019-03-10T00:37:43.619Z,95.20
2019-03-10T00:40:40.961Z,95.10
2019-03-10T00:43:21.218Z,95.20
2019-03-10T00:46:26.277Z,95.20
2019-03-10T00:49:17.488Z,95.20
2019-03-10T00:51:58.043Z,95.30
2019-03-10T00:54:26.679Z,95.30
2019-03-10T00:56:55.331Z,95.40
2019-03-10T00:59:24.027Z,95.30
2019-03-10T01:01:52.767Z,95.50
2019-03-10T01:04:21.789Z,95.60
2019-03-10T01:06:51.560Z,95.60
2019-03-10T01:09:20.510Z,95.70
2019-03-10T01:11:49.471Z,95.70
2019-03-10T01:14:18.303Z,95.60
2019-03-10T01:16:47.783Z,95.40
2019-03-10T01:19:17.604Z,95.60
2019-03-10T01:21:48.655Z,95.40
2019-03-10T01:24:17.613Z,95.70
2019-03-10T01:26:46.590Z,95.60
2019-03-10T01:29:15.405Z,95.60
2019-03-10T01:32:03.941Z,95.60
2019-03-10T01:34:57.000Z,95.70
2019-03-10T01:37:25.880Z,95.80
2019-03-10T01:39:54.406Z,95.80
2019-03-10T01:42:22.963Z,96.00
2019-03-10T01:44:51.616Z,96.20
2019-03-10T01:47:20.173Z,96.30
2019-03-10T01:49:48.753Z,96.20
2019-03-10T01:52:17.303Z,96.20
2019-03-10T01:54:48.614Z,96.20
2019-03-10T01:57:17.243Z,96.20
2019-03-10T01:59:45.844Z,96.20
2019-03-10T02:02:14.392Z,96.20
2019-03-10T02:04:43.027Z,96.20
2019-03-10T02:07:11.590Z,96.20
2019-03-10T02:09:40.151Z,96.20
2019-03-10T02:12:08.740Z,96.20
2019-03-10T02:14:37.387Z,96.30
2019-03-10T02:17:06.008Z,96.50
2019-03-10T02:19:34.558Z,96.30
2019-03-10T02:22:03.150Z,96.30
2019-03-10T02:24:31.735Z,96.30
2019-03-10T02:27:00.304Z,96.30
2019-03-10T02:29:28.851Z,96.20
2019-03-10T02:31:57.492Z,96.20
2019-03-10T02:34:26.060Z,96.10
2019-03-10T02:36:54.635Z,96.20
2019-03-10T02:39:23.197Z,96.10
2019-03-10T02:41:51.768Z,96.20
2019-03-10T02:44:20.736Z,96.30
2019-03-10T02:46:49.235Z,96.30
2019-03-10T02:49:17.793Z,96.20
2019-03-10T02:51:46.388Z,96.20
2019-03-10T02:54:14.936Z,96.70
2019-03-10T02:56:43.606Z,96.50
2019-03-10T02:59:12.164Z,96.50
2019-03-10T03:01:40.757Z,96.40
2019-03-10T03:04:09.289Z,96.40
2019-03-10T03:06:37.867Z,96.50
2019-03-10T03:09:06.923Z,96.50
2019-03-10T03:11:35.463Z,96.60
2019-03-10T03:14:04.103Z,96.70
2019-03-10T03:16:32.685Z,96.80
2019-03-10T03:19:01.239Z,96.80
2019-03-10T03:21:42.350Z,97.00
2019-03-10T03:24:00.260Z,97.40
2019-03-10T03:26:28.836Z,97.00
2019-03-10T03:28:57.392Z,97.20
2019-03-10T03:31:26.126Z,97.30
2019-03-10T03:33:54.911Z,97.40
2019-03-10T03:36:28.871Z,97.40
2019-03-10T03:39:18.373Z,97.70
2019-03-10T03:41:46.936Z,97.70
2019-03-10T03:44:15.627Z,97.80
2019-03-10T03:46:44.222Z,98.40
2019-03-10T03:49:12.756Z,98.40
2019-03-10T03:51:41.423Z,98.60
2019-03-10T03:54:10.070Z,98.90
2019-03-10T03:56:38.696Z,99.00
2019-03-10T03:59:07.523Z,99.00
2019-03-10T04:01:40.413Z,99.30
2019-03-10T04:04:09.153Z,99.30
2019-03-10T04:06:37.759Z,99.40
2019-03-10T04:09:08.283Z,99.60
2019-03-10T04:11:36.895Z,99.80
2019-03-10T04:14:05.579Z,99.60
2019-03-10T04:16:34.192Z,99.50
2019-03-10T04:19:02.745Z,99.30
2019-03-10T04:21:31.316Z,99.10
2019-03-10T04:23:59.868Z,99.20
2019-03-10T04:26:29.134Z,99.30
2019-03-10T04:28:57.691Z,99.20
2019-03-10T04:31:26.258Z,99.10
2019-03-10T04:33:54.818Z,99.30
2019-03-10T04:36:23.496Z,99.30
2019-03-10T04:38:52.047Z,99.30
2019-03-10T04:41:20.616Z,99.50
2019-03-10T04:43:49.252Z,99.60
2019-03-10T04:46:17.831Z,99.90
2019-03-10T04:48:46.391Z,99.90
2019-03-10T04:51:15.015Z,99.90
2019-03-10T04:53:43.579Z,99.90
2019-03-10T04:56:13.777Z,99.90
2019-03-10T04:58:43.999Z,99.90
2019-03-10T05:01:12.547Z,99.90
2019-03-10T05:03:41.295Z,99.90
2019-03-10T05:06:09.974Z,99.90
2019-03-10T05:08:38.591Z,99.90
2019-03-10T05:11:07.218Z,99.90
2019-03-10T05:13:35.890Z,99.90
2019-03-10T05:16:04.760Z,99.90
2019-03-10T05:18:36.268Z,99.90
2019-03-10T05:21:04.887Z,99.90
2019-03-10T05:23:35.894Z,99.90
2019-03-10T05:26:04.576Z,99.90
2019-03-10T05:32:01.940Z,98.50
2019-03-10T05:34:30.474Z,97.20
2019-03-10T05:36:59.048Z,98.60
2019-03-10T05:39:27.784Z,97.80
2019-03-10T05:41:56.423Z,99.80
2019-03-10T05:44:24.985Z,99.90
2019-03-10T05:46:53.605Z,99.90
2019-03-10T05:49:22.222Z,99.90
2019-03-10T05:51:50.852Z,99.90
2019-03-10T05:54:19.436Z,99.90
2019-03-10T05:56:48.089Z,99.90
2019-03-10T05:59:16.860Z,99.90
2019-03-10T06:01:45.397Z,99.90
2019-03-10T06:04:14.205Z,99.90
2019-03-10T06:06:42.873Z,99.90
2019-03-10T06:09:11.568Z,99.90
2019-03-10T06:11:40.180Z,99.90
2019-03-10T06:14:08.839Z,99.90
2019-03-10T06:16:38.857Z,99.90
2019-03-10T06:19:07.443Z,99.90
2019-03-10T06:21:39.418Z,99.90
2019-03-10T06:24:08.205Z,99.90
2019-03-10T06:30:32.413Z,99.90
2019-03-10T06:33:01.008Z,99.90
2019-03-10T06:35:29.579Z,99.90
2019-03-10T06:37:58.184Z,99.90
2019-03-10T06:40:32.051Z,99.90
2019-03-10T06:42:57.109Z,99.90
2019-03-10T06:45:25.754Z,99.90
2019-03-10T06:47:54.524Z,99.90
2019-03-10T06:50:23.090Z,99.90
2019-03-10T06:52:51.765Z,99.90
2019-03-10T06:55:20.385Z,99.90
2019-03-10T06:57:49.031Z,99.90
2019-03-10T07:00:17.802Z,99.90
2019-03-10T07:02:46.337Z,99.90
2019-03-10T07:05:14.960Z,99.90
2019-03-10T07:07:43.575Z,99.90
2019-03-10T07:10:14.177Z,99.90
2019-03-10T07:12:42.837Z,99.90
2019-03-10T07:15:14.922Z,99.90
2019-03-10T07:17:43.552Z,99.90
2019-03-10T07:20:21.383Z,99.90
2019-03-10T07:22:50.162Z,99.90
2019-03-10T07:25:20.022Z,99.90
2019-03-10T07:27:58.885Z,99.90
2019-03-10T07:30:44.211Z,99.90
2019-03-10T07:33:26.225Z,99.90
2019-03-10T07:36:05.475Z,99.90
2019-03-10T07:38:51.094Z,99.90
2019-03-10T07:41:36.618Z,99.90
2019-03-10T07:44:07.217Z,99.90
2019-03-10T07:46:45.789Z,99.90
2019-03-10T08:01:57.513Z,99.90
2019-03-10T08:04:43.888Z,99.90
2019-03-10T08:07:30.688Z,99.90
2019-03-10T08:10:09.995Z,99.90
2019-03-10T08:12:40.230Z,99.90
2019-03-10T08:15:22.480Z,99.90
2019-03-10T08:18:16.349Z,99.90
2019-03-10T08:20:55.763Z,99.90
2019-03-10T08:23:35.052Z,99.90
2019-03-10T08:26:08.160Z,99.90
2019-03-10T08:28:54.886Z,99.90
2019-03-10T08:31:25.180Z,99.90
2019-03-10T08:33:58.709Z,99.90
2019-03-10T08:36:44.949Z,99.90
2019-03-10T08:39:23.957Z,99.90
2019-03-10T08:41:59.923Z,99.90
2019-03-10T08:44:40.020Z,99.90
2019-03-10T08:47:28.601Z,99.90
2019-03-10T08:49:58.862Z,99.90
2019-03-10T08:52:29.101Z,99.90
2019-03-10T08:55:14.644Z,99.90
2019-03-10T08:58:02.694Z,99.90
2019-03-10T09:00:38.856Z,99.90
2019-03-10T09:03:24.147Z,99.90
2019-03-10T09:06:03.028Z,99.90
2019-03-10T09:08:48.644Z,99.90
2019-03-10T09:11:27.868Z,99.90
2019-03-10T09:13:58.219Z,99.90
2019-03-10T09:16:44.819Z,99.90
2019-03-10T09:19:15.161Z,99.90
2019-03-10T09:24:42.080Z,99.90
2019-03-10T09:27:12.467Z,99.90
2019-03-10T09:29:45.097Z,99.90
2019-03-10T09:32:21.464Z,99.90
2019-03-10T09:35:03.392Z,99.90
2019-03-10T09:40:40.784Z,99.90
2019-03-10T09:41:16.136Z,99.90
2019-03-10T09:43:20.475Z,99.90
2019-03-10T09:46:02.709Z,99.90
2019-03-10T09:48:42.178Z,99.90
2019-03-10T09:51:18.528Z,99.90
2019-03-10T09:54:03.812Z,99.90
2019-03-10T10:02:11.421Z,99.90
2019-03-10T10:05:22.438Z,99.90
2019-03-10T10:08:58.791Z,99.90
2019-03-10T10:30:12.287Z,99.90
2019-03-10T10:32:42.586Z,99.90
2019-03-10T10:35:12.848Z,99.90
2019-03-10T10:37:43.231Z,99.90
2019-03-10T10:40:42.466Z,99.90
2019-03-10T10:43:24.790Z,99.90
2019-03-10T10:45:55.005Z,99.90
2019-03-10T10:48:40.024Z,99.90
2019-03-10T10:51:11.795Z,99.90
2019-03-10T10:53:54.431Z,99.90
2019-03-10T10:56:24.741Z,99.90
2019-03-10T10:59:03.989Z,99.90
2019-03-10T11:01:34.292Z,99.90
2019-03-10T11:04:20.999Z,99.90
2019-03-10T11:06:53.648Z,99.90
2019-03-10T11:09:26.866Z,99.90
2019-03-10T11:12:13.750Z,99.90
2019-03-10T11:14:54.395Z,99.90
2019-03-10T11:17:27.353Z,99.90
2019-03-10T11:20:00.350Z,99.90
2019-03-10T11:22:30.735Z,99.90
2019-03-10T11:25:15.948Z,99.90
2019-03-10T11:27:48.927Z,99.90
2019-03-10T11:30:19.399Z,99.90
2019-03-10T11:32:49.803Z,99.90
2019-03-10T11:35:22.930Z,99.90
2019-03-10T11:37:53.167Z,99.90
2019-03-10T11:40:23.443Z,99.90
2019-03-10T11:42:59.281Z,99.90
2019-03-10T11:45:29.420Z,99.90
2019-03-10T11:48:05.434Z,99.90
2019-03-10T11:50:41.776Z,99.90
2019-03-10T11:53:19.383Z,99.90
2019-03-10T11:55:55.118Z,99.90
2019-03-10T11:58:29.947Z,99.90
2019-03-10T12:01:05.916Z,99.90
2019-03-10T12:03:46.175Z,99.90
2019-03-10T12:06:22.481Z,99.90
2019-03-10T12:08:55.605Z,99.90
2019-03-10T12:11:24.139Z,99.90
2019-03-10T12:13:52.902Z,99.90
2019-03-10T12:16:21.587Z,99.90
2019-03-10T12:18:50.261Z,99.90
2019-03-10T12:21:18.822Z,99.90
2019-03-10T12:23:47.511Z,99.90
2019-03-10T12:26:16.151Z,99.90
2019-03-10T12:28:44.738Z,99.90
2019-03-10T12:31:13.377Z,99.90
2019-03-10T12:33:41.994Z,99.90
2019-03-10T12:36:10.711Z,99.90
2019-03-10T12:38:39.304Z,99.90
2019-03-10T12:41:07.875Z,99.90
2019-03-10T12:43:43.922Z,99.90
2019-03-10T12:49:35.013Z,99.90
2019-03-10T12:52:03.629Z,99.90
2019-03-10T12:54:32.300Z,99.90
2019-03-10T12:57:00.950Z,99.90
2019-03-10T12:59:29.721Z,99.90
2019-03-10T13:01:58.447Z,99.90
2019-03-10T13:04:27.069Z,99.90
2019-03-10T13:06:55.673Z,99.90
2019-03-10T13:09:24.241Z,99.90
2019-03-10T13:11:52.990Z,99.90
2019-03-10T13:14:21.553Z,99.90
2019-03-10T13:16:50.146Z,99.90
2019-03-10T13:19:18.893Z,99.90
2019-03-10T13:21:48.683Z,99.90
2019-03-10T13:24:17.204Z,99.90
2019-03-10T13:26:45.826Z,99.90
2019-03-10T13:29:14.381Z,99.90
2019-03-10T13:31:43.053Z,99.90
2019-03-10T13:34:11.688Z,99.90
2019-03-10T13:36:40.297Z,99.90
2019-03-10T13:39:09.531Z,99.90
2019-03-10T13:41:38.164Z,99.90
2019-03-10T13:44:06.863Z,99.90
2019-03-10T13:46:35.630Z,99.90
2019-03-10T13:49:04.261Z,99.90
2019-03-10T13:51:52.231Z,99.90
2019-03-10T13:54:20.792Z,99.90
2019-03-10T13:56:49.469Z,99.90
2019-03-10T13:59:18.011Z,99.90
2019-03-10T14:01:46.798Z,99.90
2019-03-10T14:04:15.396Z,99.90
2019-03-10T14:06:43.952Z,99.90
2019-03-10T14:12:53.573Z,99.90
2019-03-10T14:15:22.126Z,99.90
2019-03-10T14:17:51.409Z,99.80
2019-03-10T14:20:20.084Z,99.90
2019-03-10T14:22:48.662Z,99.80
2019-03-10T14:25:17.460Z,98.70
2019-03-10T14:27:46.108Z,99.90
2019-03-10T14:30:35.521Z,99.90
2019-03-10T14:33:04.237Z,99.90
2019-03-10T14:35:32.940Z,99.90
2019-03-10T14:38:01.537Z,98.90
2019-03-10T14:40:30.084Z,97.30
2019-03-10T14:42:58.791Z,96.30
2019-03-10T14:45:27.402Z,95.10
2019-03-10T14:47:55.993Z,95.00
2019-03-10T14:50:24.717Z,94.00
2019-03-10T14:52:53.305Z,92.10
2019-03-10T14:55:22.720Z,90.60
2019-03-10T14:57:51.407Z,90.10
2019-03-10T15:01:17.549Z,85.90
2019-03-10T15:06:42.640Z,78.30
2019-03-10T15:09:30.970Z,75.00
2019-03-10T15:12:02.794Z,68.20
2019-03-10T15:14:42.536Z,64.60
2019-03-10T15:17:32.023Z,66.70
2019-03-10T15:20:21.809Z,60.40
2019-03-10T15:23:17.643Z,59.00
2019-03-10T15:25:31.325Z,62.50
2019-03-10T15:28:23.917Z,57.80
2019-03-10T15:31:19.304Z,57.70
2019-03-10T15:33:33.337Z,54.10
2019-03-10T15:36:19.758Z,54.50
2019-03-10T15:38:47.652Z,52.10
2019-03-10T15:41:20.777Z,50.30
2019-03-10T15:43:51.749Z,48.20
2019-03-10T15:46:22.228Z,49.00
2019-03-10T15:48:54.207Z,48.80
2019-03-10T15:51:25.759Z,49.80
2019-03-10T15:53:57.039Z,51.00
2019-03-10T15:56:25.050Z,50.60
2019-03-10T15:58:53.781Z,52.50
2019-03-10T16:01:22.479Z,53.90
2019-03-10T16:03:52.717Z,56.10
2019-03-10T16:06:21.421Z,57.50
2019-03-10T16:08:50.063Z,58.40
2019-03-10T16:11:20.321Z,59.10
2019-03-10T16:13:48.896Z,59.30
2019-03-10T16:16:17.526Z,59.60
2019-03-10T16:18:46.266Z,61.30
2019-03-10T16:21:14.972Z,59.70
2019-03-10T16:23:43.571Z,63.10
2019-03-10T16:26:12.357Z,61.40
2019-03-10T16:28:41.039Z,63.40
2019-03-10T16:34:07.548Z,63.30
2019-03-10T16:36:33.690Z,64.10
2019-03-10T16:39:05.460Z,64.60
2019-03-10T16:41:37.127Z,66.20
2019-03-10T16:44:05.785Z,68.40
2019-03-10T16:46:34.355Z,65.40
2019-03-10T16:49:02.972Z,65.40
2019-03-10T16:51:31.673Z,67.20
2019-03-10T16:54:00.275Z,70.00
2019-03-10T16:56:33.261Z,67.90
2019-03-10T16:59:03.510Z,68.80
2019-03-10T17:01:32.198Z,70.40
2019-03-10T17:04:00.812Z,72.10
2019-03-10T17:06:29.372Z,74.00
2019-03-10T17:08:57.955Z,75.90
2019-03-10T17:11:26.517Z,76.60
2019-03-10T17:13:56.690Z,76.40
2019-03-10T17:16:25.246Z,74.40
2019-03-10T17:19:09.718Z,73.30
2019-03-10T17:21:38.444Z,73.40
2019-03-10T17:24:07.111Z,73.40
2019-03-10T17:26:35.686Z,72.90
2019-03-10T17:29:04.703Z,73.00
2019-03-10T17:31:33.247Z,72.60
2019-03-10T17:34:01.888Z,72.60
2019-03-10T17:36:30.448Z,75.90
2019-03-10T17:38:59.023Z,80.20
2019-03-10T17:41:27.695Z,82.10
2019-03-10T17:43:56.408Z,83.50
2019-03-10T17:46:25.070Z,81.90
2019-03-10T17:48:53.610Z,82.90
2019-03-10T17:51:22.282Z,83.40
2019-03-10T17:53:50.843Z,81.70
2019-03-10T17:56:19.392Z,76.00
2019-03-10T17:58:48.107Z,74.50
2019-03-10T18:01:18.808Z,76.20
2019-03-10T18:03:52.198Z,74.90
2019-03-10T18:06:24.392Z,73.10
2019-03-10T18:08:51.317Z,74.30
2019-03-10T18:11:22.261Z,75.40
2019-03-10T18:13:50.239Z,75.90
2019-03-10T18:16:20.507Z,74.70
2019-03-10T18:18:49.066Z,74.80
2019-03-10T18:21:17.749Z,73.30
2019-03-10T18:26:35.931Z,73.70
2019-03-10T18:29:04.759Z,70.30
2019-03-10T18:32:41.023Z,67.50
2019-03-10T18:34:22.097Z,66.50
2019-03-10T18:36:56.728Z,65.00
2019-03-10T18:39:25.541Z,66.20
2019-03-10T18:41:54.260Z,65.80
2019-03-10T18:44:23.658Z,65.40
2019-03-10T18:46:52.512Z,66.40
2019-03-10T18:49:21.061Z,65.90
2019-03-10T18:51:49.615Z,66.00
2019-03-10T18:54:18.272Z,67.10
2019-03-10T18:56:46.898Z,70.90
2019-03-10T18:59:15.462Z,67.40
2019-03-10T19:01:44.034Z,69.30
2019-03-10T19:04:12.705Z,68.50
2019-03-10T19:06:41.269Z,68.90
2019-03-10T19:09:10.021Z,70.10
2019-03-10T19:11:38.588Z,68.50
2019-03-10T19:14:07.235Z,65.60
2019-03-10T19:16:35.858Z,65.20
2019-03-10T19:19:04.475Z,64.80
2019-03-10T19:21:33.076Z,63.30
2019-03-10T19:24:01.595Z,63.90
2019-03-10T19:26:30.167Z,64.70
2019-03-10T19:28:58.769Z,64.50
2019-03-10T19:31:27.472Z,64.80
2019-03-10T19:33:56.064Z,65.40
2019-03-10T19:36:24.698Z,64.60
2019-03-10T19:38:53.287Z,64.10
2019-03-10T19:41:21.935Z,64.80
2019-03-10T19:43:50.613Z,63.70
2019-03-10T19:46:19.186Z,64.30
2019-03-10T19:48:47.780Z,62.40
2019-03-10T19:51:16.410Z,61.30
2019-03-10T19:53:44.982Z,60.50
2019-03-10T19:56:13.570Z,59.30
2019-03-10T19:58:42.142Z,59.70
2019-03-10T20:01:10.807Z,60.00
2019-03-10T20:03:39.439Z,61.10
2019-03-10T20:06:08.039Z,61.60
2019-03-10T20:08:36.698Z,62.10
2019-03-10T20:11:05.351Z,63.00
2019-03-10T20:13:33.919Z,63.80
2019-03-10T20:16:02.790Z,65.30
2019-03-10T20:18:31.324Z,67.00
2019-03-10T20:21:00.003Z,71.70
2019-03-10T20:23:35.020Z,81.20
2019-03-10T20:26:03.611Z,83.70
2019-03-10T20:28:32.200Z,82.70
2019-03-10T20:31:00.875Z,80.70
2019-03-10T20:33:29.457Z,77.50
2019-03-10T20:35:58.075Z,78.70
2019-03-10T20:38:26.718Z,79.50
2019-03-10T20:40:55.324Z,76.10
2019-03-10T20:43:25.313Z,77.40
2019-03-10T20:46:05.638Z,75.50
2019-03-10T20:48:38.085Z,75.60
2019-03-10T20:51:07.882Z,72.70
2019-03-10T20:53:37.937Z,71.00
2019-03-10T20:56:07.736Z,71.10
2019-03-10T20:58:45.244Z,70.60
2019-03-10T21:01:13.948Z,72.00
2019-03-10T21:03:46.152Z,73.00
2019-03-10T21:06:13.216Z,74.30
2019-03-10T21:08:44.566Z,73.10
2019-03-10T21:11:13.257Z,73.80
2019-03-10T21:13:43.882Z,73.30
2019-03-10T21:16:12.449Z,73.90
2019-03-10T21:18:41.085Z,75.60
2019-03-10T21:21:09.752Z,75.80
2019-03-10T21:23:38.328Z,75.40
2019-03-10T21:26:06.890Z,76.00
2019-03-10T21:28:35.554Z,77.10
2019-03-10T21:31:04.214Z,76.10
2019-03-10T21:33:32.780Z,77.00
2019-03-10T21:36:02.965Z,77.60
2019-03-10T21:38:31.827Z,76.90
2019-03-10T21:41:01.917Z,78.40
2019-03-10T21:43:30.475Z,78.20
2019-03-10T21:46:00.769Z,78.70
2019-03-10T21:48:38.072Z,79.10
2019-03-10T21:51:06.663Z,79.20
2019-03-10T21:53:35.211Z,80.30
2019-03-10T21:56:03.903Z,80.90
2019-03-10T21:58:32.430Z,81.40
2019-03-10T22:01:05.332Z,81.10
2019-03-10T22:03:33.894Z,81.30
2019-03-10T22:06:02.603Z,81.50
2019-03-10T22:08:31.142Z,81.30
2019-03-10T22:10:59.806Z,81.40
2019-03-10T22:13:28.362Z,80.70
2019-03-10T22:15:57.306Z,80.70
2019-03-10T22:18:25.846Z,80.80
2019-03-10T22:20:54.456Z,81.40
2019-03-10T22:23:23.023Z,81.60
2019-03-10T22:25:51.607Z,85.90
2019-03-10T22:28:20.165Z,90.10
2019-03-10T22:30:48.823Z,91.20
2019-03-10T22:33:17.391Z,91.80
2019-03-10T22:35:46.026Z,92.60
2019-03-10T22:38:16.325Z,93.20
2019-03-10T22:40:47.033Z,93.50
2019-03-10T22:43:15.294Z,94.00
2019-03-10T22:45:43.950Z,94.50
2019-03-10T22:48:12.527Z,94.60
2019-03-10T22:50:41.114Z,95.00
2019-03-10T22:53:09.670Z,95.20
2019-03-10T22:55:38.262Z,95.70
2019-03-10T22:58:06.847Z,95.60
2019-03-10T23:00:44.819Z,96.10
2019-03-10T23:03:13.650Z,96.20
2019-03-10T23:05:49.883Z,96.50
2019-03-10T23:08:18.600Z,96.70
2019-03-10T23:10:47.219Z,96.60
2019-03-10T23:13:15.866Z,96.80
2019-03-10T23:15:44.505Z,96.90
2019-03-10T23:18:13.148Z,97.20
2019-03-10T23:20:41.787Z,97.40
2019-03-10T23:23:10.443Z,97.40
2019-03-10T23:25:39.002Z,97.40
2019-03-10T23:28:07.798Z,97.50
2019-03-10T23:30:36.466Z,97.40
2019-03-10T23:33:05.134Z,97.30
2019-03-10T23:35:33.847Z,97.40
2019-03-10T23:38:02.476Z,97.60
2019-03-10T23:40:31.130Z,97.30
2019-03-10T23:42:59.884Z,97.40
2019-03-10T23:45:28.498Z,97.20
2019-03-10T23:47:57.155Z,97.60
2019-03-10T23:50:25.834Z,97.70
2019-03-10T23:52:55.012Z,98.00
2019-03-10T23:55:25.188Z,98.10
2019-03-10T23:57:53.877Z,97.80
